Time;durP1;ratioP1;P1;durP2;ratioP2;P2;SDS_P1;SDS_P2;PMS_P1;PMS_P2;Temp;Humidity;BMP_temperature;BMP_pressure;BME280_temperature;BME280_humidity;BME280_pressure;Samples;Min_cycle;Max_cycle;Signal;HPM_P1;HPM_P2
2022/03/13 00:00:22;;;;;;;12.10;8.88;;;;;;;10.75;82.84;101417.91;5067807;28;20110;-29
2022/03/13 00:02:54;;;;;;;13.90;8.65;;;;;;;10.70;83.11;101405.63;5062269;28;20082;-28
2022/03/13 00:05:22;;;;;;;11.63;9.05;;;;;;;10.67;83.47;101414.59;5070967;28;20056;-29
2022/03/13 00:07:50;;;;;;;12.30;9.40;;;;;;;10.63;83.89;101415.44;5069551;28;20057;-29
2022/03/13 00:10:19;;;;;;;11.77;9.20;;;;;;;10.63;83.93;101415.44;5070296;28;20120;-28
2022/03/13 00:12:48;;;;;;;13.30;9.80;;;;;;;10.59;83.98;101426.31;5071123;28;20052;-33
2022/03/13 00:15:26;;;;;;;13.00;10.05;;;;;;;10.55;84.77;101422.47;5071062;28;20419;-29
2022/03/13 00:17:55;;;;;;;13.20;9.15;;;;;;;10.52;85.11;101414.66;5058107;28;20410;-29
2022/03/13 00:20:24;;;;;;;15.75;9.20;;;;;;;10.51;85.11;101412.16;5069726;28;20111;-27
2022/03/13 00:22:53;;;;;;;14.80;9.50;;;;;;;10.48;85.96;101413.56;5071018;28;20143;-27
2022/03/13 00:25:21;;;;;;;14.02;9.27;;;;;;;10.44;86.29;101419.97;5069852;28;20059;-28
2022/03/13 00:27:49;;;;;;;13.70;8.82;;;;;;;10.42;86.68;101408.25;5071143;28;20055;-28
2022/03/13 00:30:17;;;;;;;13.50;9.68;;;;;;;10.40;87.15;101407.72;5070839;28;20052;-28
2022/03/13 00:32:45;;;;;;;11.27;8.95;;;;;;;10.40;87.04;101404.91;5069695;28;20486;-26
2022/03/13 00:35:15;;;;;;;10.57;8.32;;;;;;;10.38;87.20;101412.78;5073930;28;20508;-27
2022/03/13 00:37:43;;;;;;;11.05;8.38;;;;;;;10.38;87.52;101418.34;5074308;28;20417;-28
2022/03/13 00:40:13;;;;;;;10.98;8.05;;;;;;;10.40;87.09;101428.06;5073401;28;20048;-31
2022/03/13 00:42:41;;;;;;;11.05;7.53;;;;;;;10.42;87.00;101411.06;5074169;28;20056;-28
2022/03/13 00:45:10;;;;;;;9.98;7.18;;;;;;;10.49;86.42;101419.97;5073325;28;20052;-27
2022/03/13 00:47:38;;;;;;;12.05;7.70;;;;;;;10.51;86.49;101420.53;5074310;28;20053;-30
2022/03/13 00:50:07;;;;;;;9.32;7.25;;;;;;;10.49;86.84;101422.75;5074259;28;20067;-29
2022/03/13 00:52:36;;;;;;;10.10;6.80;;;;;;;10.52;86.43;101413.81;5073061;28;20071;-30
2022/03/13 00:55:05;;;;;;;9.13;6.53;;;;;;;10.54;86.19;101418.00;5072529;28;20041;-28
2022/03/13 00:57:33;;;;;;;8.95;7.03;;;;;;;10.56;86.19;101423.31;5073918;28;20061;-27
2022/03/13 01:00:01;;;;;;;9.30;6.93;;;;;;;10.57;85.99;101422.19;5072927;28;20042;-31
2022/03/13 01:02:28;;;;;;;8.85;6.40;;;;;;;10.57;85.93;101416.59;5074344;28;20131;-28
2022/03/13 01:04:56;;;;;;;7.28;5.35;;;;;;;10.59;85.83;101420.75;5073844;28;20493;-29
2022/03/13 01:07:25;;;;;;;6.15;4.47;;;;;;;10.61;85.87;101406.50;5073065;28;20058;-28
2022/03/13 01:09:54;;;;;;;6.68;4.60;;;;;;;10.61;85.89;101396.19;5073850;28;20048;-29
2022/03/13 01:12:22;;;;;;;4.93;3.75;;;;;;;10.62;85.68;101402.59;5073305;28;20048;-29
2022/03/13 01:14:50;;;;;;;4.78;3.50;;;;;;;10.63;85.57;101404.28;5072795;28;20044;-29
2022/03/13 01:17:20;;;;;;;5.45;3.50;;;;;;;10.64;85.77;101394.78;5072874;28;20041;-32
2022/03/13 01:19:48;;;;;;;5.03;3.42;;;;;;;10.63;85.57;101396.72;5073794;28;20052;-30
2022/03/13 01:22:16;;;;;;;5.85;3.50;;;;;;;10.62;85.89;101391.44;5072452;28;20052;-32
2022/03/13 01:24:44;;;;;;;4.55;3.13;;;;;;;10.61;86.00;101398.97;5073444;28;20156;-30
2022/03/13 01:27:15;;;;;;;5.72;3.50;;;;;;;10.59;86.03;101392.84;5072560;28;20126;-29
2022/03/13 01:29:44;;;;;;;4.88;3.10;;;;;;;10.56;86.36;101401.81;5072583;28;20048;-27
2022/03/13 01:32:16;;;;;;;4.75;3.15;;;;;;;10.52;86.46;101397.06;5073643;28;20056;-27
2022/03/13 01:34:47;;;;;;;4.00;3.00;;;;;;;10.52;86.50;101392.34;5071939;28;20056;-27
2022/03/13 01:37:32;;;;;;;4.40;2.92;;;;;;;10.50;86.85;101393.72;5073093;28;20037;-27
2022/03/13 01:40:08;;;;;;;4.20;2.55;;;;;;;10.47;86.98;101385.94;5072197;28;20048;-30
2022/03/13 01:42:40;;;;;;;5.30;3.10;;;;;;;10.45;87.13;101379.81;5072551;28;20143;-29
2022/03/13 01:45:11;;;;;;;4.10;2.47;;;;;;;10.45;87.22;101383.41;5072176;28;20048;-27
2022/03/13 01:47:40;;;;;;;4.13;3.00;;;;;;;10.41;87.47;101378.69;5073087;28;20067;-27
2022/03/13 01:50:09;;;;;;;4.28;2.58;;;;;;;10.42;87.46;101370.03;5072047;28;20303;-30
2022/03/13 01:52:40;;;;;;;3.60;2.60;;;;;;;10.41;87.49;101373.94;5073114;28;20056;-27
2022/03/13 01:55:09;;;;;;;4.22;2.58;;;;;;;10.43;87.62;101377.28;5072939;28;20425;-29
2022/03/13 01:57:38;;;;;;;4.72;3.00;;;;;;;10.43;87.58;101374.50;5072087;28;20055;-31
2022/03/13 02:00:08;;;;;;;4.10;2.72;;;;;;;10.41;87.70;101373.94;5072611;28;20057;-30
2022/03/13 02:02:47;;;;;;;4.28;2.78;;;;;;;10.40;87.82;101361.13;5064264;28;20060;-34
2022/03/13 02:05:28;;;;;;;4.13;2.78;;;;;;;10.42;87.69;101353.31;5072771;28;20056;-27
2022/03/13 02:07:57;;;;;;;4.30;2.80;;;;;;;10.40;87.63;101358.34;5063498;28;20393;-33
2022/03/13 02:10:26;;;;;;;5.00;3.10;;;;;;;10.41;87.45;101357.22;5071675;28;20063;-28
2022/03/13 02:12:55;;;;;;;3.83;2.50;;;;;;;10.41;87.57;101350.78;5072297;28;20056;-32
2022/03/13 02:15:30;;;;;;;4.47;3.00;;;;;;;10.40;87.54;101358.34;5072567;28;20098;-28
2022/03/13 02:18:02;;;;;;;3.97;2.90;;;;;;;10.38;87.52;101351.41;5071606;28;20106;-29
2022/03/13 02:20:30;;;;;;;5.15;3.05;;;;;;;10.32;88.06;101358.94;5072145;28;20059;-27
2022/03/13 02:23:02;;;;;;;4.82;3.40;;;;;;;10.34;87.92;101353.91;5072246;28;20090;-30
2022/03/13 02:25:34;;;;;;;4.60;3.30;;;;;;;10.34;87.83;101346.38;5071335;28;20418;-29
2022/03/13 02:28:03;;;;;;;4.10;3.05;;;;;;;10.35;88.01;101352.78;5072521;28;20074;-29
2022/03/13 02:30:30;;;;;;;4.80;3.60;;;;;;;10.37;87.79;101353.34;5071323;28;20053;-31
2022/03/13 02:32:58;;;;;;;4.57;3.28;;;;;;;10.34;87.85;101337.19;5072178;28;20050;-29
2022/03/13 02:35:29;;;;;;;4.82;3.45;;;;;;;10.37;87.69;101342.19;5060797;28;20063;-30
2022/03/13 02:37:57;;;;;;;5.72;3.80;;;;;;;10.38;87.49;101343.88;5071105;28;20051;-28
2022/03/13 02:40:26;;;;;;;4.80;3.50;;;;;;;10.39;87.46;101348.31;5071599;28;20056;-30
2022/03/13 02:42:56;;;;;;;4.72;3.42;;;;;;;10.37;87.20;101344.97;5072006;28;20245;-28
2022/03/13 02:45:34;;;;;;;5.88;3.90;;;;;;;10.38;87.21;101351.41;5068032;28;20045;-28
2022/03/13 02:48:03;;;;;;;5.18;3.63;;;;;;;10.40;87.07;101349.13;5062584;28;20048;-31
2022/03/13 02:50:31;;;;;;;6.05;3.70;;;;;;;10.41;86.88;101339.63;5068268;28;20048;-28
2022/03/13 02:52:59;;;;;;;5.32;3.83;;;;;;;10.43;86.61;101338.22;5071018;28;20048;-29
2022/03/13 02:55:28;;;;;;;5.25;3.92;;;;;;;10.42;86.88;101341.31;5071490;28;20063;-30
2022/03/13 02:57:56;;;;;;;4.50;3.50;;;;;;;10.41;86.89;101348.00;5071797;28;20509;-28
2022/03/13 03:00:43;;;;;;;5.00;3.47;;;;;;;10.43;86.68;101338.22;5070642;28;20052;-29
2022/03/13 03:03:14;;;;;;;5.45;3.40;;;;;;;10.42;86.64;101336.56;5070372;28;20106;-28
2022/03/13 03:05:43;;;;;;;4.50;3.35;;;;;;;10.42;86.67;101336.56;5070664;28;20075;-28
2022/03/13 03:08:11;;;;;;;5.20;3.35;;;;;;;10.39;86.65;101337.16;5071831;28;20046;-29
2022/03/13 03:10:41;;;;;;;4.30;3.20;;;;;;;10.39;86.54;101336.31;5071606;28;20072;-35
2022/03/13 03:13:11;;;;;;;4.68;3.40;;;;;;;10.36;86.34;101329.34;5069651;28;20485;-30
2022/03/13 03:15:39;;;;;;;4.50;3.00;;;;;;;10.38;86.33;101324.34;5071504;28;20515;-31
2022/03/13 03:18:09;;;;;;;5.32;3.28;;;;;;;10.42;85.89;101333.78;5071530;28;20040;-29
2022/03/13 03:20:37;;;;;;;5.32;3.78;;;;;;;10.42;85.62;101330.97;5070667;28;20098;-30
2022/03/13 03:23:05;;;;;;;5.55;3.55;;;;;;;10.44;85.44;101327.91;5071309;28;20048;-28
2022/03/13 03:25:33;;;;;;;3.97;2.95;;;;;;;10.44;84.88;101323.16;5071392;28;20127;-34
2022/03/13 03:28:02;;;;;;;4.63;3.28;;;;;;;10.48;84.53;101324.25;5070506;28;20475;-29
2022/03/13 03:30:31;;;;;;;4.72;3.20;;;;;;;10.51;83.99;101315.31;5071545;28;20139;-32
2022/03/13 03:33:02;;;;;;;5.18;3.60;;;;;;;10.49;83.66;101327.88;5071184;28;20486;-28
2022/03/13 03:35:31;;;;;;;4.53;2.90;;;;;;;10.50;83.83;101312.81;5070568;28;20056;-32
2022/03/13 03:37:58;;;;;;;5.32;3.15;;;;;;;10.52;83.57;101314.19;5071141;28;20068;-29
2022/03/13 03:40:29;;;;;;;5.00;3.17;;;;;;;10.51;83.45;101320.91;5070899;28;20086;-31
2022/03/13 03:42:57;;;;;;;4.47;3.20;;;;;;;10.48;83.43;101315.88;5070421;28;20044;-30
2022/03/13 03:45:27;;;;;;;4.32;3.13;;;;;;;10.47;83.67;101319.81;5071288;28;20424;-28
2022/03/13 03:47:56;;;;;;;6.10;3.47;;;;;;;10.47;83.69;101318.97;5070369;28;20048;-31
2022/03/13 03:50:24;;;;;;;5.60;3.58;;;;;;;10.42;83.79;101314.25;5071135;28;20429;-28
2022/03/13 03:52:55;;;;;;;4.70;3.40;;;;;;;10.39;83.85;101322.38;5070805;28;20123;-29
2022/03/13 03:55:24;;;;;;;4.25;2.95;;;;;;;10.39;83.96;101314.84;5070582;28;20088;-30
2022/03/13 03:57:52;;;;;;;4.35;3.22;;;;;;;10.35;84.29;101313.75;5071203;28;20127;-28
2022/03/13 04:00:21;;;;;;;5.65;3.60;;;;;;;10.27;85.28;101317.13;5060390;28;20048;-29
2022/03/13 04:02:51;;;;;;;7.35;4.05;;;;;;;10.20;86.03;101313.78;5070131;28;20052;-30
2022/03/13 04:05:19;;;;;;;5.70;4.38;;;;;;;10.14;86.77;101324.13;5070836;28;20028;-27
2022/03/13 04:07:46;;;;;;;6.13;4.05;;;;;;;10.07;87.47;101315.22;5070753;28;20131;-27
2022/03/13 04:10:14;;;;;;;6.22;4.38;;;;;;;10.01;88.10;101314.38;5073954;28;20046;-27
2022/03/13 04:12:42;;;;;;;6.78;4.85;;;;;;;9.97;88.72;101323.63;5074937;28;20052;-33
2022/03/13 04:15:10;;;;;;;6.38;4.72;;;;;;;9.94;88.74;101322.25;5074462;28;20136;-28
2022/03/13 04:17:40;;;;;;;6.53;4.72;;;;;;;9.94;88.57;101324.19;5072731;28;20094;-33
2022/03/13 04:20:11;;;;;;;8.85;5.55;;;;;;;9.94;88.53;101322.25;5074713;28;20050;-27
2022/03/13 04:22:39;;;;;;;6.78;5.05;;;;;;;9.92;88.62;101327.25;5074862;28;20044;-29
2022/03/13 04:25:07;;;;;;;7.82;5.45;;;;;;;9.92;88.92;101330.06;5073734;28;20064;-28
2022/03/13 04:27:35;;;;;;;7.20;5.30;;;;;;;9.89;89.13;101327.81;5074602;28;20044;-29
2022/03/13 04:30:04;;;;;;;7.97;5.60;;;;;;;9.86;89.42;101331.19;5073799;28;20046;-27
2022/03/13 04:32:32;;;;;;;7.65;5.50;;;;;;;9.83;89.56;101323.38;5074031;28;20086;-27
2022/03/13 04:35:00;;;;;;;8.20;5.35;;;;;;;9.83;89.70;101323.38;5074739;28;20044;-29
2022/03/13 04:37:29;;;;;;;8.95;5.20;;;;;;;9.80;89.69;101315.56;5071973;28;20900;-29
2022/03/13 04:39:57;;;;;;;7.78;5.07;;;;;;;9.80;90.10;101329.50;5072269;28;20044;-28
2022/03/13 04:42:25;;;;;;;8.15;5.57;;;;;;;9.80;90.14;101323.09;5073019;28;20053;-30
2022/03/13 04:44:53;;;;;;;6.68;4.88;;;;;;;9.81;90.00;101316.41;5073253;28;20124;-28
2022/03/13 04:47:20;;;;;;;6.47;4.88;;;;;;;9.82;89.76;101330.06;5074376;28;20079;-28
2022/03/13 04:49:48;;;;;;;6.55;4.95;;;;;;;9.80;90.20;101328.69;5073847;28;20036;-28
2022/03/13 04:52:16;;;;;;;7.15;4.85;;;;;;;9.78;90.38;101328.97;5073435;28;20060;-30
2022/03/13 04:54:45;;;;;;;6.07;4.50;;;;;;;9.82;89.97;101329.22;5073699;28;20040;-29
2022/03/13 04:57:13;;;;;;;6.38;4.20;;;;;;;9.81;89.98;101341.50;5063023;28;20051;-29
2022/03/13 04:59:41;;;;;;;6.50;4.28;;;;;;;9.77;90.34;101335.69;5072300;28;20098;-27
2022/03/13 05:02:08;;;;;;;5.82;4.25;;;;;;;9.80;90.11;101342.59;5074016;28;20068;-30
2022/03/13 05:04:38;;;;;;;5.55;4.28;;;;;;;9.80;90.01;101326.72;5073740;28;20051;-27
2022/03/13 05:07:06;;;;;;;6.30;4.25;;;;;;;9.84;89.85;101329.78;5069542;28;20063;-28
2022/03/13 05:09:34;;;;;;;6.38;4.13;;;;;;;9.80;90.37;101335.09;5073634;28;20139;-31
2022/03/13 05:12:05;;;;;;;6.65;4.60;;;;;;;9.80;90.18;101329.50;5073346;28;20386;-30
2022/03/13 05:14:33;;;;;;;5.47;3.60;;;;;;;9.80;90.00;101320.31;5072751;28;20562;-29
2022/03/13 05:17:00;;;;;;;5.30;4.05;;;;;;;9.76;90.67;101322.84;5073584;28;20061;-29
2022/03/13 05:19:28;;;;;;;6.18;4.25;;;;;;;9.71;91.06;101333.16;5072702;28;20062;-27
2022/03/13 05:21:56;;;;;;;6.65;4.68;;;;;;;9.68;91.20;101320.63;5073389;28;20054;-28
2022/03/13 05:24:24;;;;;;;6.20;4.70;;;;;;;9.66;91.05;101332.06;5073277;28;20123;-28
2022/03/13 05:26:52;;;;;;;6.70;4.50;;;;;;;9.63;91.15;101326.22;5072609;28;20048;-30
2022/03/13 05:29:21;;;;;;;8.57;5.32;;;;;;;9.59;91.17;101328.72;5073200;28;20055;-30
2022/03/13 05:31:49;;;;;;;7.68;5.38;;;;;;;9.58;91.14;101329.88;5073318;28;20063;-28
2022/03/13 05:34:17;;;;;;;7.38;5.32;;;;;;;9.53;91.34;101323.44;5072418;28;20041;-27
2022/03/13 05:36:46;;;;;;;9.10;4.90;;;;;;;9.53;91.46;101331.81;5073314;28;20044;-27
2022/03/13 05:39:14;;;;;;;9.10;6.68;;;;;;;9.49;91.56;101322.34;5073016;28;20139;-29
2022/03/13 05:41:42;;;;;;;15.52;9.63;;;;;;;9.46;91.70;101326.53;5072487;28;20415;-27
2022/03/13 05:44:12;;;;;;;12.38;8.00;;;;;;;9.45;91.90;101332.38;5072852;28;20043;-29
2022/03/13 05:46:42;;;;;;;10.80;6.70;;;;;;;9.46;91.70;101328.47;5072861;28;20055;-28
2022/03/13 05:49:09;;;;;;;8.93;5.95;;;;;;;9.40;92.13;101326.78;5072192;28;20465;-27
2022/03/13 05:51:42;;;;;;;8.23;5.70;;;;;;;9.40;92.26;101324.00;5072557;28;20085;-31
2022/03/13 05:54:13;;;;;;;7.97;5.82;;;;;;;9.38;92.50;101331.84;5063056;28;20378;-29
2022/03/13 05:56:41;;;;;;;9.02;6.00;;;;;;;9.39;92.66;101330.72;5071723;28;20044;-28
2022/03/13 05:59:10;;;;;;;8.82;6.28;;;;;;;9.39;92.58;101339.09;5071307;28;20040;-26
2022/03/13 06:01:38;;;;;;;9.27;6.10;;;;;;;9.38;92.64;101337.41;5069127;28;20075;-27
2022/03/13 06:04:08;;;;;;;10.13;6.43;;;;;;;9.40;92.53;101335.16;5069793;28;20049;-30
2022/03/13 06:06:36;;;;;;;8.65;6.20;;;;;;;9.41;92.54;101326.50;5069718;28;20162;-28
2022/03/13 06:09:04;;;;;;;9.57;6.45;;;;;;;9.42;92.46;101327.34;5068851;28;20095;-29
2022/03/13 06:11:32;;;;;;;9.20;6.70;;;;;;;9.41;92.94;101336.81;5070714;28;20044;-27
2022/03/13 06:14:00;;;;;;;9.82;6.53;;;;;;;9.42;92.99;101332.94;5071395;28;20044;-29
2022/03/13 06:16:27;;;;;;;9.13;6.55;;;;;;;9.42;93.29;101327.34;5070704;28;20047;-28
2022/03/13 06:18:55;;;;;;;9.90;6.75;;;;;;;9.41;93.48;101331.25;5070728;28;20412;-29
2022/03/13 06:21:24;;;;;;;9.98;6.82;;;;;;;9.40;93.78;101326.78;5071168;28;20047;-28
2022/03/13 06:23:52;;;;;;;8.80;6.55;;;;;;;9.44;93.45;101334.31;5070400;28;20040;-28
2022/03/13 06:26:20;;;;;;;11.63;7.05;;;;;;;9.47;93.53;101335.72;5071025;28;20055;-29
2022/03/13 06:28:47;;;;;;;8.30;6.10;;;;;;;9.47;93.47;101350.47;5070690;28;20048;-30
2022/03/13 06:31:18;;;;;;;10.40;7.05;;;;;;;9.47;93.62;101344.06;5069280;28;20052;-27
2022/03/13 06:33:46;;;;;;;9.30;6.97;;;;;;;9.48;93.50;101346.56;5069600;28;20469;-29
2022/03/13 06:36:14;;;;;;;9.15;7.00;;;;;;;9.47;93.86;101346.84;5070730;28;20131;-27
2022/03/13 06:38:43;;;;;;;9.85;7.28;;;;;;;9.44;93.88;101345.47;5069577;28;20473;-30
2022/03/13 06:41:11;;;;;;;10.20;7.45;;;;;;;9.43;94.21;101345.75;5070668;28;20045;-27
2022/03/13 06:43:39;;;;;;;11.57;8.13;;;;;;;9.42;94.22;101344.06;5069877;28;20045;-29
2022/03/13 06:46:10;;;;;;;12.00;8.32;;;;;;;9.38;94.42;101342.97;5071010;28;20047;-27
2022/03/13 06:48:38;;;;;;;12.50;8.18;;;;;;;9.39;94.27;101344.66;5070753;28;20404;-27
2022/03/13 06:51:06;;;;;;;9.95;7.47;;;;;;;9.35;94.46;101347.16;5069293;28;20460;-28
2022/03/13 06:53:35;;;;;;;12.98;9.30;;;;;;;9.35;94.52;101337.97;5070069;28;20052;-29
2022/03/13 06:56:05;;;;;;;10.88;7.97;;;;;;;9.36;94.36;101340.47;5070480;28;20043;-32
2022/03/13 06:58:33;;;;;;;10.55;7.88;;;;;;;9.37;94.13;101350.50;5069919;28;20059;-31
2022/03/13 07:01:01;;;;;;;11.85;8.75;;;;;;;9.39;94.04;101350.22;5069257;28;20056;-28
2022/03/13 07:03:29;;;;;;;12.23;8.55;;;;;;;9.42;93.80;101355.22;5070153;28;20048;-30
2022/03/13 07:05:57;;;;;;;13.18;8.82;;;;;;;9.42;93.43;101355.22;5069396;28;20048;-29
2022/03/13 07:08:24;;;;;;;12.45;8.95;;;;;;;9.41;93.28;101361.88;5070350;28;20587;-29
2022/03/13 07:10:52;;;;;;;13.57;9.32;;;;;;;9.38;92.74;101354.97;5069914;28;20060;-29
2022/03/13 07:13:21;;;;;;;14.88;10.05;;;;;;;9.39;91.92;101355.78;5069685;28;20066;-29
2022/03/13 07:15:49;;;;;;;14.40;10.48;;;;;;;9.40;91.51;101357.44;5070073;28;20070;-31
2022/03/13 07:18:17;;;;;;;14.20;10.63;;;;;;;9.40;91.44;101358.28;5069316;28;20067;-29
2022/03/13 07:20:45;;;;;;;15.23;10.98;;;;;;;9.37;91.02;101358.00;5069461;28;20044;-30
2022/03/13 07:23:13;;;;;;;14.35;10.13;;;;;;;9.37;91.11;101363.59;5070050;28;20135;-30
2022/03/13 07:25:41;;;;;;;14.57;10.23;;;;;;;9.37;90.96;101349.66;5070569;28;20052;-28
2022/03/13 07:28:08;;;;;;;16.05;11.15;;;;;;;9.38;90.21;101359.69;5067878;28;20052;-28
2022/03/13 07:30:37;;;;;;;15.75;11.65;;;;;;;9.37;89.66;101364.44;5070236;28;20055;-28
2022/03/13 07:33:05;;;;;;;17.08;11.82;;;;;;;9.35;88.54;101354.69;5069194;28;20110;-31
2022/03/13 07:35:33;;;;;;;16.38;11.52;;;;;;;9.35;88.24;101361.09;5068108;28;20055;-28
2022/03/13 07:38:01;;;;;;;16.83;12.60;;;;;;;9.35;87.79;101361.09;5070248;28;20102;-29
2022/03/13 07:40:29;;;;;;;17.70;12.93;;;;;;;9.37;87.09;101366.38;5068162;28;20147;-27
2022/03/13 07:42:57;;;;;;;17.98;12.70;;;;;;;9.38;86.62;101362.47;5068688;28;20045;-30
2022/03/13 07:45:26;;;;;;;16.75;12.90;;;;;;;9.40;85.77;101361.06;5072155;28;20505;-27
2022/03/13 07:47:57;;;;;;;16.88;12.55;;;;;;;9.40;85.61;101365.78;5060885;28;20048;-28
2022/03/13 07:50:25;;;;;;;16.60;12.88;;;;;;;9.45;85.80;101363.00;5070582;28;20494;-27
2022/03/13 07:52:53;;;;;;;18.88;13.68;;;;;;;9.46;85.15;101376.66;5072566;28;20053;-30
2022/03/13 07:55:21;;;;;;;19.92;14.18;;;;;;;9.46;85.10;101376.66;5071686;28;20052;-28
2022/03/13 07:57:49;;;;;;;18.65;13.10;;;;;;;9.49;85.30;101373.31;5069472;28;20051;-31
2022/03/13 08:00:18;;;;;;;17.50;13.48;;;;;;;9.55;84.86;101376.94;5072401;28;20055;-28
2022/03/13 08:02:46;;;;;;;19.08;13.60;;;;;;;9.57;84.63;101372.78;5071462;28;20059;-28
2022/03/13 08:05:18;;;;;;;17.83;14.05;;;;;;;9.60;84.68;101380.53;5072312;28;20076;-28
2022/03/13 08:07:45;;;;;;;19.55;13.93;;;;;;;9.63;83.90;101381.94;5072347;28;20147;-28
2022/03/13 08:10:14;;;;;;;19.27;14.48;;;;;;;9.62;83.99;101378.31;5070979;28;20044;-28
2022/03/13 08:12:41;;;;;;;18.00;13.45;;;;;;;9.63;84.06;101376.38;5071633;28;20052;-28
2022/03/13 08:15:10;;;;;;;20.50;14.05;;;;;;;9.63;84.37;101370.78;5071364;28;20048;-27
2022/03/13 08:17:37;;;;;;;20.25;14.77;;;;;;;9.64;84.50;101364.09;5072712;28;20063;-28
2022/03/13 08:20:07;;;;;;;18.67;14.18;;;;;;;9.64;84.70;101359.38;5071781;28;20037;-31
2022/03/13 08:22:37;;;;;;;20.58;14.25;;;;;;;9.67;84.44;101369.13;5071142;28;20455;-28
2022/03/13 08:25:06;;;;;;;19.65;13.93;;;;;;;9.68;84.62;101370.78;5072674;28;20043;-28
2022/03/13 08:27:35;;;;;;;18.58;13.73;;;;;;;9.67;85.09;101367.16;5070119;28;20067;-29
2022/03/13 08:30:07;;;;;;;20.00;14.15;;;;;;;9.65;85.28;101365.78;5068901;28;20092;-29
2022/03/13 08:32:37;;;;;;;18.15;13.88;;;;;;;9.63;85.31;101373.56;5072503;28;20102;-28
2022/03/13 08:35:06;;;;;;;20.13;14.35;;;;;;;9.65;85.41;101363.00;5073122;28;20059;-27
2022/03/13 08:37:34;;;;;;;18.52;14.02;;;;;;;9.68;85.32;101368.84;5072110;28;20051;-28
2022/03/13 08:40:04;;;;;;;19.48;15.02;;;;;;;9.68;85.50;101365.22;5037432;28;1036686;-32
2022/03/13 08:42:32;;;;;;;19.25;13.85;;;;;;;9.69;85.61;101366.88;5074142;28;20044;-30
2022/03/13 08:45:01;;;;;;;19.17;14.55;;;;;;;9.70;85.62;101373.31;5072231;28;20133;-32
2022/03/13 08:47:28;;;;;;;19.13;14.07;;;;;;;9.73;85.52;101372.75;5073563;28;20362;-28
2022/03/13 08:49:56;;;;;;;18.55;14.65;;;;;;;9.73;85.52;101367.16;5073411;28;20102;-28
2022/03/13 08:52:24;;;;;;;18.92;14.05;;;;;;;9.73;85.44;101367.16;5071650;28;20067;-29
2022/03/13 08:54:52;;;;;;;19.05;13.25;;;;;;;9.75;85.31;101376.09;5073566;28;20071;-29
2022/03/13 08:57:21;;;;;;;19.13;14.20;;;;;;;9.75;84.76;101371.34;5072660;28;20494;-28
2022/03/13 08:59:48;;;;;;;17.65;13.18;;;;;;;9.76;85.41;101366.63;5073641;28;20044;-28
2022/03/13 09:02:22;;;;;;;21.27;14.73;;;;;;;9.79;85.10;101363.25;5073621;28;20044;-27
2022/03/13 09:04:50;;;;;;;19.60;14.35;;;;;;;9.81;85.21;101363.78;5072825;28;20037;-28
2022/03/13 09:07:17;;;;;;;20.00;14.27;;;;;;;9.84;84.79;101357.66;5073475;28;20044;-28
2022/03/13 09:09:47;;;;;;;19.33;14.18;;;;;;;9.87;84.72;101352.34;5073761;28;20082;-28
2022/03/13 09:12:17;;;;;;;18.20;13.80;;;;;;;9.94;84.46;101357.66;5073319;28;20407;-27
2022/03/13 09:14:46;;;;;;;19.90;14.55;;;;;;;10.00;84.06;101351.75;5073258;28;20048;-27
2022/03/13 09:17:15;;;;;;;18.67;13.25;;;;;;;10.10;83.98;101344.50;5073523;28;20036;-28
2022/03/13 09:19:43;;;;;;;18.13;13.63;;;;;;;10.21;83.81;101343.34;5072323;28;20223;-28
2022/03/13 09:22:13;;;;;;;18.90;13.55;;;;;;;10.29;83.53;101345.56;5073099;28;20125;-28
2022/03/13 09:24:41;;;;;;;18.05;13.90;;;;;;;10.31;83.04;101340.53;5073472;28;20098;-28
2022/03/13 09:27:09;;;;;;;16.63;13.15;;;;;;;10.37;82.89;101332.97;5072620;28;20041;-31
2022/03/13 09:29:37;;;;;;;17.67;12.98;;;;;;;10.41;83.00;101334.06;5073237;28;20060;-29
2022/03/13 09:32:07;;;;;;;19.25;13.57;;;;;;;10.44;82.86;101337.13;5073293;28;20048;-29
2022/03/13 09:34:35;;;;;;;22.10;15.18;;;;;;;10.42;82.33;101341.31;5072198;28;20061;-28
2022/03/13 09:37:03;;;;;;;17.90;14.00;;;;;;;10.35;82.27;101345.25;5071835;28;20052;-28
2022/03/13 09:39:31;;;;;;;19.65;13.43;;;;;;;10.35;81.99;101336.91;5072159;28;20425;-30
2022/03/13 09:41:59;;;;;;;18.02;13.38;;;;;;;10.35;82.00;101338.84;5073039;28;20058;-27
2022/03/13 09:44:28;;;;;;;20.00;13.85;;;;;;;10.40;81.81;101344.38;5071803;28;20394;-28
2022/03/13 09:46:56;;;;;;;17.63;13.05;;;;;;;10.42;81.38;101342.13;5072058;28;20135;-29
2022/03/13 09:49:27;;;;;;;17.38;13.20;;;;;;;10.35;79.70;101341.63;5071673;28;20055;-28
2022/03/13 09:51:55;;;;;;;18.05;13.45;;;;;;;10.36;79.21;101343.31;5073153;28;20112;-29
2022/03/13 09:54:23;;;;;;;18.20;13.15;;;;;;;10.45;79.12;101333.19;5071774;28;20044;-27
2022/03/13 09:56:52;;;;;;;22.73;13.60;;;;;;;10.68;78.65;101332.50;5072977;28;20029;-29
2022/03/13 09:59:20;;;;;;;18.15;12.77;;;;;;;11.11;77.96;101341.16;5072405;28;20504;-30
2022/03/13 10:01:48;;;;;;;17.73;12.68;;;;;;;11.57;75.12;101335.19;5070819;28;20482;-28
2022/03/13 10:04:16;;;;;;;17.40;12.35;;;;;;;12.00;73.21;101334.16;5072622;28;20407;-28
2022/03/13 10:07:08;;;;;;;16.92;12.82;;;;;;;12.33;66.82;101343.59;5071612;28;20146;-32
2022/03/13 10:09:38;;;;;;;18.65;12.38;;;;;;;12.45;68.50;101334.75;5072068;28;20140;-32
2022/03/13 10:12:09;;;;;;;18.73;12.65;;;;;;;12.73;66.76;101336.59;5072612;28;20041;-34
2022/03/13 10:14:38;;;;;;;16.70;12.20;;;;;;;12.88;65.67;101329.94;5072010;28;20045;-28
2022/03/13 10:17:25;;;;;;;15.50;11.63;;;;;;;12.99;63.24;101344.63;5071380;28;20053;-32
2022/03/13 10:19:52;;;;;;;18.83;13.13;;;;;;;13.09;62.44;101331.28;5072318;28;20078;-33
2022/03/13 10:22:29;;;;;;;15.93;12.07;;;;;;;13.19;61.76;101341.50;5071294;28;20467;-36
2022/03/13 10:24:57;;;;;;;17.55;12.52;;;;;;;13.22;60.71;101337.25;5072236;28;20045;-29
2022/03/13 10:27:25;;;;;;;16.17;13.05;;;;;;;13.21;61.93;101330.00;5072271;28;20502;-30
2022/03/13 10:29:52;;;;;;;14.98;11.40;;;;;;;13.22;61.79;101342.88;5071302;28;20047;-31
2022/03/13 10:32:20;;;;;;;17.95;12.90;;;;;;;13.27;61.26;101342.78;5071413;28;20051;-29
2022/03/13 10:34:55;;;;;;;17.25;12.88;;;;;;;13.24;60.21;101340.59;5071616;28;20045;-29
2022/03/13 10:37:35;;;;;;;17.02;13.25;;;;;;;13.21;57.82;101338.41;5070675;28;20049;-31
2022/03/13 10:40:08;;;;;;;15.45;11.73;;;;;;;13.25;59.49;101339.47;5064259;28;20044;-28
2022/03/13 10:42:43;;;;;;;14.88;11.68;;;;;;;13.30;59.20;101333.78;5071927;28;20053;-28
2022/03/13 10:45:14;;;;;;;17.75;12.95;;;;;;;13.39;58.12;101345.94;5063395;28;20527;-28
2022/03/13 10:47:41;;;;;;;15.52;11.95;;;;;;;13.47;59.13;101336.84;5071561;28;20509;-28
2022/03/13 10:50:09;;;;;;;16.55;12.15;;;;;;;13.43;57.22;101350.63;5071076;28;20071;-29
2022/03/13 10:52:41;;;;;;;15.80;12.25;;;;;;;13.43;58.75;101344.19;5071731;28;20053;-30
2022/03/13 10:55:19;;;;;;;19.58;12.80;;;;;;;13.53;56.66;101337.59;5071657;28;20063;-30
2022/03/13 10:57:52;;;;;;;15.90;11.93;;;;;;;13.49;56.38;101331.75;5070722;28;20565;-28
2022/03/13 11:00:21;;;;;;;18.30;12.38;;;;;;;13.56;57.74;101326.59;5071533;28;20486;-28
2022/03/13 11:02:49;;;;;;;16.52;12.45;;;;;;;13.58;57.61;101326.28;5071219;28;20059;-30
2022/03/13 11:05:17;;;;;;;17.55;12.25;;;;;;;13.59;57.32;101325.97;5070172;28;20043;-29
2022/03/13 11:07:49;;;;;;;17.67;12.23;;;;;;;13.67;56.96;101330.03;5071131;28;20068;-28
2022/03/13 11:10:17;;;;;;;16.35;11.40;;;;;;;13.83;56.59;101317.38;5070817;28;20493;-28
2022/03/13 11:12:47;;;;;;;15.70;11.95;;;;;;;13.96;55.67;101308.16;5070235;28;20501;-30
2022/03/13 11:15:15;;;;;;;14.65;11.77;;;;;;;13.97;55.51;101306.19;5070480;28;20125;-27
2022/03/13 11:17:43;;;;;;;16.17;12.10;;;;;;;14.00;55.77;101300.75;5070935;28;20439;-29
2022/03/13 11:20:13;;;;;;;15.27;11.63;;;;;;;13.97;55.38;101304.22;5069333;28;20056;-28
2022/03/13 11:22:41;;;;;;;16.80;11.82;;;;;;;13.98;55.29;101319.09;5069716;28;20063;-28
2022/03/13 11:25:11;;;;;;;22.90;11.52;;;;;;;14.08;53.89;101316.88;5058751;28;20139;-30
2022/03/13 11:27:42;;;;;;;15.52;12.18;;;;;;;14.10;52.81;101306.19;5069681;28;20461;-30
2022/03/13 11:30:14;;;;;;;16.10;12.23;;;;;;;14.14;52.95;101300.78;5069643;28;20417;-28